createdAt,value
2022-10-08T00:01:01.750Z,70.50
2022-10-08T00:04:05.401Z,70.50
2022-10-08T00:07:09.031Z,70.50
2022-10-08T00:10:12.783Z,70.50
2022-10-08T00:13:18.300Z,70.60
2022-10-08T00:16:25.564Z,70.60
2022-10-08T00:19:29.340Z,70.70
2022-10-08T00:22:32.943Z,70.70
2022-10-08T00:25:41.011Z,70.80
2022-10-08T00:28:48.499Z,70.80
2022-10-08T00:31:52.495Z,70.90
2022-10-08T00:34:56.613Z,70.90
2022-10-08T00:38:00.253Z,70.90
2022-10-08T00:41:04.903Z,70.80
2022-10-08T00:44:38.660Z,70.90
2022-10-08T00:47:47.158Z,71.10
2022-10-08T00:50:50.890Z,71.20
2022-10-08T00:53:54.926Z,71.20
2022-10-08T00:56:58.285Z,71.30
2022-10-08T01:00:03.671Z,71.20
2022-10-08T01:07:06.844Z,71.30
2022-10-08T01:10:15.423Z,71.30
2022-10-08T01:13:29.458Z,71.40
2022-10-08T01:16:44.040Z,71.40
2022-10-08T01:20:12.305Z,71.50
2022-10-08T01:23:39.037Z,71.70
2022-10-08T01:26:57.126Z,71.80
2022-10-08T01:30:06.155Z,71.70
2022-10-08T01:33:14.593Z,71.70
2022-10-08T01:36:22.216Z,72.40
2022-10-08T01:39:30.422Z,71.90
2022-10-08T01:42:38.604Z,71.90
2022-10-08T01:45:48.013Z,72.00
2022-10-08T01:48:54.112Z,72.10
2022-10-08T01:52:03.590Z,72.10
2022-10-08T01:55:15.048Z,72.20
2022-10-08T01:58:23.170Z,72.20
2022-10-08T02:01:34.680Z,72.30
2022-10-08T02:04:38.346Z,72.40
2022-10-08T02:07:44.270Z,72.40
2022-10-08T02:10:47.966Z,72.50
2022-10-08T02:13:51.678Z,72.60
2022-10-08T02:17:04.786Z,72.70
2022-10-08T02:20:17.197Z,72.80
2022-10-08T02:23:25.466Z,72.90
2022-10-08T02:26:34.293Z,72.90
2022-10-08T02:29:43.116Z,73.00
2022-10-08T02:32:52.990Z,73.00
2022-10-08T02:36:00.280Z,73.20
2022-10-08T02:39:07.216Z,73.20
2022-10-08T02:42:14.278Z,73.30
2022-10-08T02:45:23.001Z,73.30
2022-10-08T02:48:32.666Z,73.50
2022-10-08T02:51:40.686Z,73.50
2022-10-08T02:54:46.486Z,73.50
2022-10-08T02:57:56.092Z,73.70
2022-10-08T03:01:05.883Z,73.70
2022-10-08T03:04:16.919Z,73.70
2022-10-08T03:07:22.368Z,73.80
2022-10-08T03:10:26.953Z,73.80
2022-10-08T03:13:31.642Z,73.90
2022-10-08T03:16:39.294Z,74.00
2022-10-08T03:19:44.933Z,74.10
2022-10-08T03:22:49.050Z,74.10
2022-10-08T03:25:52.971Z,74.10
2022-10-08T03:28:56.584Z,74.20
2022-10-08T03:32:00.297Z,74.30
2022-10-08T03:35:06.378Z,75.00
2022-10-08T03:38:09.999Z,74.50
2022-10-08T03:41:13.639Z,74.50
2022-10-08T03:44:17.240Z,74.60
2022-10-08T03:47:20.831Z,74.60
2022-10-08T03:50:26.655Z,74.70
2022-10-08T03:53:33.478Z,74.80
2022-10-08T03:56:37.240Z,74.80
2022-10-08T03:59:40.875Z,74.90
2022-10-08T04:02:44.657Z,74.90
2022-10-08T04:05:52.317Z,74.90
2022-10-08T04:09:00.381Z,75.00
2022-10-08T04:12:03.997Z,75.00
2022-10-08T04:15:09.190Z,75.00
2022-10-08T04:18:13.362Z,75.10
2022-10-08T04:21:19.929Z,75.10
2022-10-08T04:24:23.537Z,75.10
2022-10-08T04:27:27.362Z,75.10
2022-10-08T04:30:31.478Z,75.20
2022-10-08T04:33:36.655Z,75.30
2022-10-08T04:36:42.217Z,75.20
2022-10-08T04:39:45.839Z,75.30
2022-10-08T04:42:52.473Z,75.30
2022-10-08T04:45:56.169Z,75.40
2022-10-08T04:48:59.841Z,76.10
2022-10-08T04:52:05.525Z,75.50
2022-10-08T04:55:10.801Z,75.50
2022-10-08T04:58:14.465Z,75.60
2022-10-08T05:01:20.386Z,75.60
2022-10-08T05:04:24.335Z,75.60
2022-10-08T05:07:30.697Z,75.70
2022-10-08T05:10:34.349Z,75.70
2022-10-08T05:13:38.291Z,75.60
2022-10-08T05:16:41.899Z,75.70
2022-10-08T05:19:45.518Z,75.70
2022-10-08T05:22:51.011Z,75.80
2022-10-08T05:25:54.631Z,76.00
2022-10-08T05:29:00.124Z,76.10
2022-10-08T05:32:03.991Z,76.20
2022-10-08T05:35:08.728Z,76.20
2022-10-08T05:38:14.252Z,76.30
2022-10-08T05:41:19.353Z,76.40
2022-10-08T05:44:23.157Z,76.40
2022-10-08T05:47:26.895Z,76.50
2022-10-08T05:50:30.523Z,76.60
2022-10-08T05:53:38.561Z,76.50
2022-10-08T05:56:42.219Z,76.70
2022-10-08T05:59:45.790Z,76.60
2022-10-08T06:02:51.120Z,76.70
2022-10-08T06:05:55.127Z,76.80
2022-10-08T06:09:02.375Z,76.80
2022-10-08T06:12:08.028Z,76.90
2022-10-08T06:15:11.985Z,76.90
2022-10-08T06:18:15.391Z,76.90
2022-10-08T06:21:21.085Z,76.90
2022-10-08T06:24:26.607Z,76.70
2022-10-08T06:27:30.251Z,76.90
2022-10-08T06:30:33.861Z,76.90
2022-10-08T06:33:37.522Z,77.00
2022-10-08T06:36:41.368Z,77.10
2022-10-08T06:39:48.586Z,77.10
2022-10-08T06:42:52.628Z,77.20
2022-10-08T06:45:59.346Z,77.20
2022-10-08T06:49:05.329Z,77.20
2022-10-08T06:52:08.934Z,77.00
2022-10-08T06:55:14.461Z,77.20
2022-10-08T06:58:18.050Z,77.30
2022-10-08T07:01:25.913Z,77.40
2022-10-08T07:04:31.588Z,77.50
2022-10-08T07:07:35.352Z,77.50
2022-10-08T07:10:40.961Z,77.60
2022-10-08T07:13:45.470Z,77.60
2022-10-08T07:16:49.287Z,77.70
2022-10-08T07:19:53.446Z,77.80
2022-10-08T07:22:57.085Z,77.80
2022-10-08T07:26:04.290Z,77.90
2022-10-08T07:29:09.716Z,78.00
2022-10-08T07:32:13.494Z,78.00
2022-10-08T07:35:17.506Z,78.10
2022-10-08T07:38:20.885Z,78.20
2022-10-08T07:41:26.849Z,78.10
2022-10-08T07:44:30.592Z,78.00
2022-10-08T07:47:34.234Z,78.10
2022-10-08T07:50:37.894Z,78.20
2022-10-08T07:53:42.272Z,78.30
2022-10-08T07:56:48.542Z,78.40
2022-10-08T07:59:52.311Z,78.40
2022-10-08T08:02:56.024Z,78.20
2022-10-08T08:06:02.662Z,78.20
2022-10-08T08:09:06.258Z,78.10
2022-10-08T08:12:11.847Z,78.10
2022-10-08T08:15:15.437Z,78.00
2022-10-08T08:18:19.086Z,78.50
2022-10-08T08:21:24.526Z,77.90
2022-10-08T08:24:28.228Z,77.70
2022-10-08T08:27:33.771Z,77.60
2022-10-08T08:30:37.383Z,77.60
2022-10-08T08:33:41.634Z,77.60
2022-10-08T08:36:48.147Z,77.50
2022-10-08T08:39:51.719Z,77.40
2022-10-08T08:42:58.271Z,77.40
2022-10-08T08:46:04.055Z,77.80
2022-10-08T08:49:15.828Z,77.10
2022-10-08T08:52:21.585Z,76.90
2022-10-08T08:55:34.670Z,76.80
2022-10-08T08:58:44.066Z,76.60
2022-10-08T09:01:50.093Z,76.40
2022-10-08T09:04:57.273Z,76.10
2022-10-08T09:08:05.113Z,75.90
2022-10-08T09:11:13.741Z,75.80
2022-10-08T09:14:38.338Z,75.60
2022-10-08T09:17:43.307Z,75.20
2022-10-08T09:20:46.999Z,75.20
2022-10-08T09:23:50.649Z,75.00
2022-10-08T09:26:55.959Z,74.80
2022-10-08T09:30:01.516Z,74.50
2022-10-08T09:33:17.907Z,74.40
2022-10-08T09:36:31.203Z,74.80
2022-10-08T09:39:37.683Z,73.80
2022-10-08T09:42:41.343Z,73.80
2022-10-08T09:45:48.890Z,73.70
2022-10-08T09:48:52.567Z,73.60
2022-10-08T09:51:58.294Z,73.60
2022-10-08T09:55:04.647Z,73.30
2022-10-08T09:58:16.636Z,73.10
2022-10-08T10:01:24.456Z,72.90
2022-10-08T10:04:35.428Z,72.70
2022-10-08T10:07:42.287Z,72.50
2022-10-08T10:10:48.331Z,72.40
2022-10-08T10:13:52.475Z,72.10
2022-10-08T10:17:04.565Z,72.10
2022-10-08T10:20:16.701Z,71.80
2022-10-08T10:23:24.008Z,71.90
2022-10-08T10:26:31.629Z,71.90
2022-10-08T10:29:50.419Z,72.00
2022-10-08T10:33:01.677Z,71.90
2022-10-08T10:36:10.897Z,71.70
2022-10-08T10:39:27.964Z,71.60
2022-10-08T10:42:37.874Z,71.20
2022-10-08T10:45:44.732Z,71.10
2022-10-08T10:48:51.645Z,70.80
2022-10-08T10:52:04.801Z,70.50
2022-10-08T10:55:19.764Z,70.20
2022-10-08T10:58:34.193Z,69.90
2022-10-08T11:01:44.915Z,69.50
2022-10-08T11:05:01.938Z,69.20
2022-10-08T11:08:29.639Z,68.90
2022-10-08T11:11:37.729Z,68.80
2022-10-08T11:14:52.311Z,68.90
2022-10-08T11:18:14.244Z,68.60
2022-10-08T11:21:34.894Z,68.40
2022-10-08T11:24:59.319Z,68.20
2022-10-08T11:28:07.972Z,68.20
2022-10-08T11:31:19.305Z,68.50
2022-10-08T11:34:25.760Z,68.20
2022-10-08T11:37:39.789Z,67.80
2022-10-08T11:40:49.515Z,67.30
2022-10-08T11:43:56.904Z,67.30
2022-10-08T11:47:30.448Z,67.10
2022-10-08T11:50:36.047Z,66.60
2022-10-08T11:53:41.595Z,67.10
2022-10-08T11:56:47.758Z,67.10
2022-10-08T12:00:01.118Z,67.20
2022-10-08T12:03:22.372Z,67.10
2022-10-08T12:06:29.410Z,67.00
2022-10-08T12:10:04.037Z,67.30
2022-10-08T12:13:28.774Z,66.90
2022-10-08T12:17:10.062Z,67.00
2022-10-08T12:20:22.248Z,66.80
2022-10-08T12:23:40.226Z,66.90
2022-10-08T12:27:31.586Z,66.80
2022-10-08T12:30:51.391Z,66.60
2022-10-08T12:34:03.619Z,66.50
2022-10-08T12:37:16.774Z,66.40
2022-10-08T12:40:31.846Z,66.30
2022-10-08T12:43:42.373Z,66.10
2022-10-08T12:46:57.400Z,65.90
2022-10-08T12:50:08.329Z,65.60
2022-10-08T12:53:15.322Z,65.60
2022-10-08T12:56:23.868Z,65.60
2022-10-08T12:59:31.349Z,65.50
2022-10-08T13:02:42.026Z,65.60
2022-10-08T13:05:47.427Z,65.40
2022-10-08T13:08:53.930Z,65.40
2022-10-08T13:12:03.188Z,65.20
2022-10-08T13:15:09.336Z,64.90
2022-10-08T13:18:23.351Z,64.80
2022-10-08T13:21:35.018Z,64.40
2022-10-08T13:24:41.292Z,64.70
2022-10-08T13:27:45.251Z,64.60
2022-10-08T13:30:49.489Z,64.60
2022-10-08T13:33:54.793Z,64.60
2022-10-08T13:37:00.326Z,64.70
2022-10-08T13:40:06.571Z,64.90
2022-10-08T13:43:10.261Z,64.80
2022-10-08T13:46:13.936Z,64.80
2022-10-08T13:49:23.003Z,64.90
2022-10-08T13:52:26.652Z,64.60
2022-10-08T13:55:33.182Z,64.60
2022-10-08T13:58:36.822Z,64.50
2022-10-08T14:01:40.501Z,64.50
2022-10-08T14:04:46.067Z,64.50
2022-10-08T14:07:52.349Z,64.40
2022-10-08T14:10:57.409Z,64.40
2022-10-08T14:14:01.022Z,64.40
2022-10-08T14:17:04.653Z,64.20
2022-10-08T14:20:11.315Z,64.20
2022-10-08T14:23:15.366Z,64.20
2022-10-08T14:26:18.969Z,64.10
2022-10-08T14:29:22.666Z,64.20
2022-10-08T14:32:26.249Z,64.30
2022-10-08T14:35:31.788Z,64.10
2022-10-08T14:38:35.514Z,63.90
2022-10-08T14:41:40.189Z,63.80
2022-10-08T14:44:43.815Z,63.70
2022-10-08T14:47:47.539Z,63.60
2022-10-08T14:50:53.174Z,63.50
2022-10-08T14:53:56.775Z,63.40
2022-10-08T14:57:00.390Z,63.40
2022-10-08T15:00:04.888Z,63.50
2022-10-08T15:03:08.579Z,63.50
2022-10-08T15:06:14.115Z,63.60
2022-10-08T15:09:17.976Z,63.70
2022-10-08T15:12:21.603Z,63.70
2022-10-08T15:15:25.222Z,63.70
2022-10-08T15:18:31.857Z,63.70
2022-10-08T15:21:37.790Z,63.80
2022-10-08T15:24:41.425Z,63.90
2022-10-08T15:27:45.414Z,63.90
2022-10-08T15:30:48.800Z,64.00
2022-10-08T15:33:55.431Z,64.10
2022-10-08T15:37:01.053Z,64.10
2022-10-08T15:40:05.008Z,64.00
2022-10-08T15:43:08.367Z,64.10
2022-10-08T15:46:13.937Z,64.10
2022-10-08T15:49:17.846Z,64.20
2022-10-08T15:52:23.206Z,64.10
2022-10-08T15:55:26.794Z,64.10
2022-10-08T15:58:49.847Z,64.20
2022-10-08T16:01:54.742Z,64.10
2022-10-08T16:04:58.369Z,64.30
2022-10-08T16:08:08.023Z,64.20
2022-10-08T16:11:13.310Z,64.20
2022-10-08T16:14:18.271Z,64.30
2022-10-08T16:17:21.893Z,64.20
2022-10-08T16:20:25.633Z,64.30
2022-10-08T16:23:33.159Z,64.30
2022-10-08T16:26:37.016Z,64.40
2022-10-08T16:29:40.654Z,64.50
2022-10-08T16:32:44.654Z,64.50
2022-10-08T16:35:48.105Z,64.50
2022-10-08T16:38:54.473Z,64.60
2022-10-08T16:41:58.084Z,64.80
2022-10-08T16:45:01.693Z,64.60
2022-10-08T16:48:07.662Z,64.70
2022-10-08T16:51:11.567Z,64.70
2022-10-08T16:54:17.838Z,64.80
2022-10-08T16:57:21.455Z,64.90
2022-10-08T17:00:25.074Z,64.80
2022-10-08T17:03:28.808Z,64.90
2022-10-08T17:06:32.446Z,64.90
2022-10-08T17:09:38.394Z,65.00
2022-10-08T17:12:42.543Z,65.10
2022-10-08T17:15:46.412Z,65.10
2022-10-08T17:18:52.610Z,65.10
2022-10-08T17:21:56.238Z,65.20
2022-10-08T17:25:01.762Z,65.90
2022-10-08T17:28:05.503Z,65.30
2022-10-08T17:31:10.738Z,65.30
2022-10-08T17:34:14.471Z,65.50
2022-10-08T17:37:18.107Z,65.50
2022-10-08T17:40:23.986Z,65.50
2022-10-08T17:43:27.736Z,65.60
2022-10-08T17:46:32.962Z,65.70
2022-10-08T17:49:36.614Z,65.70
2022-10-08T17:52:40.237Z,65.70
2022-10-08T17:55:45.781Z,65.80
2022-10-08T17:58:49.750Z,65.80
2022-10-08T18:01:54.373Z,65.90
2022-10-08T18:04:57.825Z,65.90
2022-10-08T18:08:01.431Z,66.00
2022-10-08T18:11:08.709Z,66.50
2022-10-08T18:14:12.885Z,66.10
2022-10-08T18:17:16.524Z,66.00
2022-10-08T18:20:20.123Z,66.20
2022-10-08T18:23:23.887Z,66.30
2022-10-08T18:26:33.297Z,66.30
2022-10-08T18:29:36.898Z,66.40
2022-10-08T18:32:40.525Z,66.50
2022-10-08T18:35:44.174Z,66.50
2022-10-08T18:38:48.993Z,66.50
2022-10-08T18:41:54.666Z,66.60
2022-10-08T18:44:58.255Z,66.70
2022-10-08T18:48:01.927Z,66.80
2022-10-08T18:51:06.711Z,66.90
2022-10-08T18:54:11.602Z,66.90
2022-10-08T18:57:17.130Z,67.00
2022-10-08T19:00:20.806Z,67.10
2022-10-08T19:03:26.324Z,67.10
2022-10-08T19:06:32.241Z,67.20
2022-10-08T19:09:35.977Z,67.20
2022-10-08T19:12:41.558Z,67.30
2022-10-08T19:15:45.162Z,67.40
2022-10-08T19:18:55.023Z,67.40
2022-10-08T19:21:59.731Z,67.60
2022-10-08T19:25:03.515Z,67.60
2022-10-08T19:28:09.095Z,67.60
2022-10-08T19:31:17.614Z,67.70
2022-10-08T19:34:23.481Z,67.70
2022-10-08T19:37:27.151Z,67.80
2022-10-08T19:40:30.773Z,67.80
2022-10-08T19:43:36.650Z,67.90
2022-10-08T19:46:40.296Z,68.00
2022-10-08T19:49:44.003Z,68.10
2022-10-08T19:52:51.736Z,68.10
2022-10-08T19:55:55.659Z,68.10
2022-10-08T19:59:01.375Z,68.20
2022-10-08T20:02:05.213Z,68.30
2022-10-08T20:05:10.096Z,68.30
2022-10-08T20:08:13.751Z,68.40
2022-10-08T20:11:19.546Z,68.40
2022-10-08T20:14:25.101Z,68.50
2022-10-08T20:17:28.742Z,68.50
2022-10-08T20:20:33.728Z,68.60
2022-10-08T20:23:39.366Z,68.70
2022-10-08T20:26:44.318Z,68.70
2022-10-08T20:29:49.880Z,68.70
2022-10-08T20:32:53.562Z,68.70
2022-10-08T20:35:57.158Z,68.80
2022-10-08T20:39:01.035Z,68.80
2022-10-08T20:42:04.710Z,68.80
2022-10-08T20:45:11.403Z,69.50
2022-10-08T20:48:15.042Z,68.90
2022-10-08T20:51:20.878Z,69.00
2022-10-08T20:54:24.706Z,69.10
2022-10-08T20:57:28.334Z,69.10
2022-10-08T21:00:34.868Z,69.20
2022-10-08T21:03:39.334Z,69.20
2022-10-08T21:06:44.655Z,69.20
2022-10-08T21:09:51.847Z,69.20
2022-10-08T21:12:55.465Z,69.30
2022-10-08T21:16:05.435Z,69.40
2022-10-08T21:19:12.678Z,69.40
2022-10-08T21:22:16.391Z,69.40
2022-10-08T21:25:20.002Z,69.50
2022-10-08T21:28:23.744Z,69.50
2022-10-08T21:31:32.494Z,69.50
2022-10-08T21:34:36.174Z,69.60
2022-10-08T21:37:39.749Z,69.60
2022-10-08T21:40:43.482Z,69.70
2022-10-08T21:43:48.493Z,69.70
2022-10-08T21:46:54.064Z,69.70
2022-10-08T21:49:57.724Z,69.80
2022-10-08T21:53:01.287Z,69.80
2022-10-08T21:56:07.871Z,69.90
2022-10-08T21:59:14.766Z,69.90
2022-10-08T22:02:20.348Z,70.00
2022-10-08T22:05:29.111Z,70.10
2022-10-08T22:08:33.953Z,70.10
2022-10-08T22:11:37.549Z,70.20
2022-10-08T22:14:41.186Z,70.10
2022-10-08T22:17:46.675Z,70.00
2022-10-08T22:20:50.396Z,70.10
2022-10-08T22:23:54.294Z,70.20
2022-10-08T22:26:57.712Z,70.20
2022-10-08T22:30:01.293Z,70.30
2022-10-08T22:33:06.873Z,70.10
2022-10-08T22:36:15.509Z,70.90
2022-10-08T22:39:19.135Z,70.30
2022-10-08T22:42:22.711Z,70.40
2022-10-08T22:45:26.518Z,70.50
2022-10-08T22:48:32.459Z,70.50
2022-10-08T22:51:37.160Z,70.60
2022-10-08T22:54:40.767Z,70.60
2022-10-08T22:57:44.941Z,70.60
2022-10-08T23:00:58.236Z,70.60
2022-10-08T23:04:03.789Z,70.60
2022-10-08T23:07:07.377Z,70.70
2022-10-08T23:10:11.286Z,70.70
2022-10-08T23:13:14.866Z,70.80
2022-10-08T23:16:18.590Z,70.80
2022-10-08T23:19:24.339Z,70.80
2022-10-08T23:22:28.082Z,70.80
2022-10-08T23:25:31.678Z,70.90
2022-10-08T23:28:37.186Z,70.90
2022-10-08T23:31:40.912Z,71.00
2022-10-08T23:34:46.482Z,71.00
2022-10-08T23:37:50.114Z,71.00
2022-10-08T23:40:53.735Z,71.00
2022-10-08T23:43:58.886Z,71.10
2022-10-08T23:47:02.518Z,71.10
2022-10-08T23:50:10.164Z,71.10
2022-10-08T23:53:13.779Z,71.20
2022-10-08T23:56:17.387Z,71.10
2022-10-08T23:59:21.050Z,71.20
